Portada
METAR-TAF:

METAR-TAF

Aeroports :

Berlin, Nova Hampshire, Estats Units d'Amèrica

latitud: 44-34-34N, longitud: 071-10-43W, altitud: 353 m

Observació

L'informe es va fer fa 51 minuts, a les 16:52 UTC
Vent 12 kt del Sud
Temperatura 13°C
Humitat 38%
Pressió 1008 hPa
Visibilitat: 16.1 km
Cel ennuvolat a una alçada de 4900 ft
Cel ennuvolat a una alçada de 11000 ft

METAR: KBML 151652Z AUTO 17012KT 10SM BKN049 BKN110 13/M01 A2978 RMK AO2 SLP092 T01331011

Hora: 13:43 (17:43 UTC)


TAF: manca

Observacions i pronòstics meteorològics de més de 4000 aeroports (METAR i TAF).

Les estacions disponibles són els punts grocs i vermells al mapa.

Posi el ratolí al punt desitjat per veure el nom de l'estació.

Feu clic per veure les observacions i els pronòstics meteorològics.

Per canviar el mapa: feu clic els botons verds amb una creu de color negre per apropar; al botó verd amb un guió per allunyar la imatge; o en les fletxes verdes per a mapes adjacents.


METAR-TAF: